Time;durP1;ratioP1;P1;durP2;ratioP2;P2;SDS_P1;SDS_P2;PMS_P1;PMS_P2;Temp;Humidity;BMP_temperature;BMP_pressure;BME280_temperature;BME280_humidity;BME280_pressure;Samples;Min_cycle;Max_cycle;Signal;HPM_P1;HPM_P2
2024/01/19 00:00:35;;;;;;;8.73;4.37;;;;;;;;;;5018869;28;88651;-64
2024/01/19 00:03:05;;;;;;;8.23;5.37;;;;;;;;;;5019320;28;87687;-64
2024/01/19 00:05:33;;;;;;;7.67;5.50;;;;;;;;;;5018388;28;89668;-64
2024/01/19 00:08:02;;;;;;;11.07;6.07;;;;;;;;;;5010267;28;89074;-64
2024/01/19 00:10:32;;;;;;;7.97;5.50;;;;;;;;;;5017228;28;88870;-64
2024/01/19 00:13:01;;;;;;;9.20;5.83;;;;;;;;;;5018712;28;87583;-64
2024/01/19 00:15:29;;;;;;;8.97;5.17;;;;;;;;;;5019098;28;89027;-64
2024/01/19 00:18:10;;;;;;;7.40;4.87;;;;;;;;;;5013040;28;90437;-64
2024/01/19 00:20:39;;;;;;;9.50;6.30;;;;;;;;;;4997575;28;89638;-63
2024/01/19 00:23:07;;;;;;;7.50;4.50;;;;;;;;;;4998867;28;87817;-63
2024/01/19 00:25:37;;;;;;;10.73;5.57;;;;;;;;;;4998253;28;89686;-64
2024/01/19 00:28:06;;;;;;;8.90;4.73;;;;;;;;;;4998390;28;88082;-64
2024/01/19 00:30:34;;;;;;;7.13;4.83;;;;;;;;;;5001705;28;88865;-64
2024/01/19 00:33:02;;;;;;;8.37;5.23;;;;;;;;;;5008942;28;87629;-64
2024/01/19 00:35:32;;;;;;;8.33;5.60;;;;;;;;;;4999222;28;89810;-64
2024/01/19 00:38:00;;;;;;;8.27;4.80;;;;;;;;;;4999358;28;89496;-64
2024/01/19 00:40:29;;;;;;;11.67;6.27;;;;;;;;;;4998864;28;87763;-65
2024/01/19 00:42:57;;;;;;;7.83;5.57;;;;;;;;;;5002319;28;88005;-64
2024/01/19 00:45:25;;;;;;;6.40;4.73;;;;;;;;;;4998744;28;89638;-64
2024/01/19 00:47:54;;;;;;;10.50;5.63;;;;;;;;;;4998455;28;91363;-64
2024/01/19 00:50:22;;;;;;;8.17;5.20;;;;;;;;;;4998381;28;89006;-65
2024/01/19 00:52:53;;;;;;;11.43;6.03;;;;;;;;;;5004363;28;88068;-64
2024/01/19 00:55:21;;;;;;;10.70;5.00;;;;;;;;;;5038731;28;89665;-64
2024/01/19 00:57:50;;;;;;;10.40;5.40;;;;;;;;;;5038324;28;89161;-64
2024/01/19 01:00:18;;;;;;;10.60;6.30;;;;;;;;;;5021715;28;88986;-64
2024/01/19 01:02:46;;;;;;;14.47;5.67;;;;;;;;;;4998800;28;87333;-64
2024/01/19 01:05:15;;;;;;;10.10;6.63;;;;;;;;;;4998936;28;90061;-64
2024/01/19 01:07:43;;;;;;;9.33;6.33;;;;;;;;;;4997505;28;88894;-64
2024/01/19 01:10:13;;;;;;;9.83;6.20;;;;;;;;;;5016903;28;89756;-64
2024/01/19 01:12:41;;;;;;;8.07;5.50;;;;;;;;;;5016641;28;88320;-64
2024/01/19 01:15:10;;;;;;;11.50;6.60;;;;;;;;;;5018123;28;89780;-64
2024/01/19 01:17:42;;;;;;;10.97;6.07;;;;;;;;;;5017767;28;88056;-65
2024/01/19 01:20:11;;;;;;;12.83;6.87;;;;;;;;;;5018293;28;87806;-64
2024/01/19 01:22:39;;;;;;;15.27;6.23;;;;;;;;;;5017972;28;87704;-64
2024/01/19 01:25:09;;;;;;;6.87;5.17;;;;;;;;;;5018277;28;89610;-64
2024/01/19 01:27:39;;;;;;;8.13;5.70;;;;;;;;;;5016885;28;88884;-64
2024/01/19 01:30:09;;;;;;;6.93;5.07;;;;;;;;;;5017418;28;88912;-64
2024/01/19 01:32:38;;;;;;;7.23;5.13;;;;;;;;;;5010362;28;88179;-64
2024/01/19 01:35:06;;;;;;;8.80;4.63;;;;;;;;;;4997629;28;90066;-65
2024/01/19 01:37:35;;;;;;;9.83;4.77;;;;;;;;;;4997785;28;89092;-64
2024/01/19 01:40:05;;;;;;;12.77;5.27;;;;;;;;;;4997597;28;88942;-64
2024/01/19 01:42:33;;;;;;;5.67;4.03;;;;;;;;;;4998095;28;88248;-64
2024/01/19 01:45:03;;;;;;;6.13;3.80;;;;;;;;;;4997433;28;89677;-64
2024/01/19 01:47:32;;;;;;;7.20;4.67;;;;;;;;;;4997478;28;89337;-64
2024/01/19 01:50:01;;;;;;;6.87;3.63;;;;;;;;;;4997188;28;87728;-64
2024/01/19 01:52:29;;;;;;;7.37;4.23;;;;;;;;;;4997985;28;87725;-64
2024/01/19 01:54:57;;;;;;;7.23;3.73;;;;;;;;;;4997469;28;89776;-64
2024/01/19 01:57:26;;;;;;;6.27;3.60;;;;;;;;;;4996987;28;90145;-64
2024/01/19 01:59:54;;;;;;;5.57;2.67;;;;;;;;;;5012434;28;89789;-64
2024/01/19 02:02:24;;;;;;;3.67;3.13;;;;;;;;;;5017353;28;87515;-64
2024/01/19 02:04:53;;;;;;;3.93;2.70;;;;;;;;;;5017549;28;89856;-64
2024/01/19 02:07:21;;;;;;;4.27;3.10;;;;;;;;;;5017204;28;89447;-65
2024/01/19 02:09:50;;;;;;;5.07;3.20;;;;;;;;;;5016968;28;88883;-65
2024/01/19 02:12:18;;;;;;;4.90;3.00;;;;;;;;;;5017603;28;87621;-65
2024/01/19 02:14:47;;;;;;;3.53;2.83;;;;;;;;;;5017756;28;89624;-65
2024/01/19 02:17:15;;;;;;;3.63;2.60;;;;;;;;;;5018030;28;88937;-65
2024/01/19 02:19:45;;;;;;;3.57;2.27;;;;;;;;;;5016957;28;88905;-65
2024/01/19 02:22:13;;;;;;;4.70;2.90;;;;;;;;;;5016819;28;88297;-64
2024/01/19 02:24:43;;;;;;;3.03;2.00;;;;;;;;;;5016869;28;89726;-65
2024/01/19 02:27:11;;;;;;;3.67;2.57;;;;;;;;;;5016798;28;88394;-65
2024/01/19 02:29:39;;;;;;;2.60;1.77;;;;;;;;;;5016448;28;87762;-65
2024/01/19 02:32:08;;;;;;;3.07;1.90;;;;;;;;;;5017370;28;88348;-64
2024/01/19 02:34:36;;;;;;;3.63;2.17;;;;;;;;;;5016382;28;89689;-65
2024/01/19 02:37:04;;;;;;;4.07;2.47;;;;;;;;;;5017119;28;89106;-65
2024/01/19 02:39:33;;;;;;;3.47;1.80;;;;;;;;;;5016424;28;88657;-65
2024/01/19 02:42:02;;;;;;;2.73;1.57;;;;;;;;;;5018213;28;87907;-65
2024/01/19 02:44:32;;;;;;;2.10;1.87;;;;;;;;;;5019921;28;88977;-65
2024/01/19 02:47:00;;;;;;;1.70;1.57;;;;;;;;;;5019554;28;90084;-64
2024/01/19 02:49:29;;;;;;;2.83;1.90;;;;;;;;;;5020484;28;89923;-65
2024/01/19 02:51:57;;;;;;;1.90;1.70;;;;;;;;;;5020456;28;88008;-65
2024/01/19 02:54:25;;;;;;;1.77;1.67;;;;;;;;;;5019520;28;89626;-65
2024/01/19 02:56:54;;;;;;;1.93;1.73;;;;;;;;;;5019555;28;89154;-65
2024/01/19 02:59:24;;;;;;;3.97;1.60;;;;;;;;;;5020428;28;89263;-64
2024/01/19 03:01:53;;;;;;;2.60;2.07;;;;;;;;;;5020308;28;88053;-64
2024/01/19 03:04:22;;;;;;;4.93;2.00;;;;;;;;;;5019691;28;89647;-65
2024/01/19 03:06:50;;;;;;;2.17;1.00;;;;;;;;;;5019996;28;88726;-64
2024/01/19 03:09:20;;;;;;;1.90;1.70;;;;;;;;;;5019465;28;88993;-65
2024/01/19 03:11:48;;;;;;;4.90;1.87;;;;;;;;;;5019741;28;87967;-64
2024/01/19 03:14:18;;;;;;;1.30;1.10;;;;;;;;;;5019727;28;89414;-64
2024/01/19 03:16:51;;;;;;;2.13;1.40;;;;;;;;;;5020598;28;89127;-64
2024/01/19 03:19:19;;;;;;;3.93;1.30;;;;;;;;;;5019361;28;88868;-65
2024/01/19 03:21:47;;;;;;;0.97;0.90;;;;;;;;;;5019618;28;87530;-65
2024/01/19 03:24:16;;;;;;;1.83;1.27;;;;;;;;;;5019460;28;89698;-64
2024/01/19 03:26:44;;;;;;;1.03;0.83;;;;;;;;;;5020403;28;87942;-65
2024/01/19 03:29:12;;;;;;;2.33;1.33;;;;;;;;;;5019835;28;88674;-65
2024/01/19 03:31:41;;;;;;;2.73;1.70;;;;;;;;;;5019462;28;87620;-64
2024/01/19 03:34:10;;;;;;;2.70;1.57;;;;;;;;;;5016733;28;89553;-64
2024/01/19 03:36:40;;;;;;;2.53;2.20;;;;;;;;;;5017951;28;89734;-64
2024/01/19 03:39:10;;;;;;;3.97;1.50;;;;;;;;;;5016420;28;89788;-64
2024/01/19 03:41:40;;;;;;;2.93;1.90;;;;;;;;;;5019359;28;87780;-64
2024/01/19 03:44:11;;;;;;;3.03;1.90;;;;;;;;;;5017002;28;89609;-64
2024/01/19 03:46:39;;;;;;;1.70;1.50;;;;;;;;;;5018539;28;89165;-65
2024/01/19 03:49:07;;;;;;;3.77;2.40;;;;;;;;;;5015852;28;88799;-64
2024/01/19 03:51:37;;;;;;;5.17;3.20;;;;;;;;;;5019616;28;87616;-64
2024/01/19 03:54:06;;;;;;;3.40;2.60;;;;;;;;;;5018430;28;89700;-64
2024/01/19 03:56:34;;;;;;;7.30;3.00;;;;;;;;;;5019078;28;89149;-65
2024/01/19 03:59:02;;;;;;;4.37;2.83;;;;;;;;;;5018512;28;87704;-65
2024/01/19 04:01:31;;;;;;;6.33;3.67;;;;;;;;;;5017473;28;90271;-64
2024/01/19 04:03:59;;;;;;;9.80;5.57;;;;;;;;;;5017827;28;89812;-64
2024/01/19 04:06:27;;;;;;;8.57;4.40;;;;;;;;;;5015696;28;89182;-64
2024/01/19 04:09:03;;;;;;;7.27;3.50;;;;;;;;;;5018859;28;88764;-64
2024/01/19 04:11:31;;;;;;;11.07;4.77;;;;;;;;;;5021035;28;87513;-64
2024/01/19 04:14:00;;;;;;;7.63;3.87;;;;;;;;;;5015297;28;89646;-64
2024/01/19 04:16:28;;;;;;;6.27;3.60;;;;;;;;;;5012781;28;89108;-64
2024/01/19 04:18:56;;;;;;;9.00;4.33;;;;;;;;;;5018557;28;88172;-64
2024/01/19 04:21:27;;;;;;;5.57;3.70;;;;;;;;;;5014623;28;88208;-64
2024/01/19 04:24:01;;;;;;;10.23;4.70;;;;;;;;;;5015371;28;89597;-64
2024/01/19 04:26:34;;;;;;;7.67;4.57;;;;;;;;;;5015440;28;90123;-64
2024/01/19 04:29:03;;;;;;;7.70;4.03;;;;;;;;;;5018532;28;90082;-64
2024/01/19 04:31:31;;;;;;;10.47;4.03;;;;;;;;;;5018753;28;87626;-64
2024/01/19 04:33:59;;;;;;;9.10;4.50;;;;;;;;;;5014758;28;89828;-64
2024/01/19 04:36:28;;;;;;;5.77;3.70;;;;;;;;;;5015286;28;89071;-64
2024/01/19 04:38:57;;;;;;;11.77;4.37;;;;;;;;;;5018643;28;88859;-64
2024/01/19 04:41:25;;;;;;;9.27;4.03;;;;;;;;;;5017538;28;87587;-64
2024/01/19 04:43:55;;;;;;;10.93;5.70;;;;;;;;;;5017311;28;89766;-64
2024/01/19 04:46:23;;;;;;;6.83;4.10;;;;;;;;;;5017601;28;89115;-64
2024/01/19 04:48:54;;;;;;;5.07;3.17;;;;;;;;;;5017203;28;89109;-64
2024/01/19 04:51:23;;;;;;;6.73;3.47;;;;;;;;;;5014786;28;88151;-64
2024/01/19 04:53:51;;;;;;;4.40;2.97;;;;;;;;;;5015240;28;90015;-64
2024/01/19 04:56:19;;;;;;;8.73;3.97;;;;;;;;;;5017353;28;89181;-64
2024/01/19 04:58:49;;;;;;;5.50;3.00;;;;;;;;;;5014479;28;88863;-64
2024/01/19 05:01:21;;;;;;;5.33;3.10;;;;;;;;;;5013418;28;87611;-64
2024/01/19 05:03:51;;;;;;;6.17;3.10;;;;;;;;;;5014930;28;91412;-64
2024/01/19 05:06:20;;;;;;;4.30;3.20;;;;;;;;;;5012073;28;89092;-64
2024/01/19 05:08:52;;;;;;;3.30;2.23;;;;;;;;;;5017339;28;88852;-64
2024/01/19 05:11:20;;;;;;;3.70;2.60;;;;;;;;;;5018667;28;87590;-64
2024/01/19 05:13:49;;;;;;;4.27;2.03;;;;;;;;;;5016468;28;89715;-64
2024/01/19 05:16:17;;;;;;;4.33;2.50;;;;;;;;;;5018249;28;90283;-64
2024/01/19 05:18:47;;;;;;;5.67;2.70;;;;;;;;;;5016588;28;88664;-64
2024/01/19 05:21:15;;;;;;;2.83;2.10;;;;;;;;;;5019403;28;87615;-64
2024/01/19 05:23:44;;;;;;;2.30;2.03;;;;;;;;;;5020209;28;89640;-64
2024/01/19 05:26:12;;;;;;;3.83;2.10;;;;;;;;;;5020524;28;89114;-64
2024/01/19 05:28:41;;;;;;;5.63;2.20;;;;;;;;;;5020653;28;88898;-63
2024/01/19 05:31:09;;;;;;;3.03;1.63;;;;;;;;;;5018165;28;87564;-64
2024/01/19 05:33:38;;;;;;;2.53;1.80;;;;;;;;;;5021265;28;88501;-64
2024/01/19 05:36:09;;;;;;;2.40;1.97;;;;;;;;;;5020519;28;88974;-64
2024/01/19 05:38:37;;;;;;;3.73;1.77;;;;;;;;;;5020334;28;88936;-64
2024/01/19 05:41:06;;;;;;;2.10;1.77;;;;;;;;;;5014152;28;87925;-64
2024/01/19 05:43:36;;;;;;;2.30;1.50;;;;;;;;;;5019929;28;89641;-64
2024/01/19 05:46:04;;;;;;;6.27;1.73;;;;;;;;;;5019470;28;90309;-64
2024/01/19 05:48:34;;;;;;;3.27;1.53;;;;;;;;;;5017901;28;88781;-64
2024/01/19 05:51:05;;;;;;;3.47;2.30;;;;;;;;;;5019994;28;87553;-64
2024/01/19 05:53:34;;;;;;;8.03;1.60;;;;;;;;;;5018508;28;92051;-64
2024/01/19 05:56:03;;;;;;;4.70;1.90;;;;;;;;;;5018066;28;89056;-64
2024/01/19 05:58:33;;;;;;;4.30;1.90;;;;;;;;;;5007755;28;88838;-64
2024/01/19 06:01:02;;;;;;;3.97;2.10;;;;;;;;;;5013118;28;88542;-64
2024/01/19 06:03:33;;;;;;;3.73;2.40;;;;;;;;;;5006190;28;89663;-64
2024/01/19 06:06:01;;;;;;;5.63;2.20;;;;;;;;;;5000265;28;90271;-63
2024/01/19 06:08:33;;;;;;;2.00;1.60;;;;;;;;;;5014602;28;88626;-64
2024/01/19 06:11:05;;;;;;;2.30;1.57;;;;;;;;;;5020797;28;87637;-64
2024/01/19 06:13:34;;;;;;;2.50;2.23;;;;;;;;;;5020698;28;89759;-64
2024/01/19 06:16:03;;;;;;;3.10;2.10;;;;;;;;;;5027631;28;89204;-64
2024/01/19 06:18:31;;;;;;;2.87;2.37;;;;;;;;;;5030666;28;88635;-64
2024/01/19 06:21:00;;;;;;;3.03;2.20;;;;;;;;;;5029913;28;87614;-64
2024/01/19 06:23:29;;;;;;;4.73;2.20;;;;;;;;;;5030455;28;89752;-63
2024/01/19 06:25:58;;;;;;;2.20;2.00;;;;;;;;;;5029457;28;89059;-64
2024/01/19 06:28:27;;;;;;;11.07;2.63;;;;;;;;;;5028963;28;89254;-64
2024/01/19 06:30:56;;;;;;;4.23;3.10;;;;;;;;;;5026665;28;87915;-64
2024/01/19 06:33:24;;;;;;;3.37;2.53;;;;;;;;;;5030294;28;89608;-63
2024/01/19 06:35:53;;;;;;;4.60;2.70;;;;;;;;;;5025366;28;89126;-64
2024/01/19 06:38:21;;;;;;;6.70;2.33;;;;;;;;;;5029957;28;88830;-64
2024/01/19 06:40:51;;;;;;;2.80;2.30;;;;;;;;;;5030501;27;87805;-63
2024/01/19 06:43:22;;;;;;;5.90;2.90;;;;;;;;;;5026549;28;89689;-63
2024/01/19 06:45:52;;;;;;;4.97;2.53;;;;;;;;;;5029973;28;89081;-64
2024/01/19 06:48:23;;;;;;;2.40;2.20;;;;;;;;;;5024547;28;88878;-64
2024/01/19 06:50:52;;;;;;;4.00;3.13;;;;;;;;;;5023517;28;87486;-64
2024/01/19 06:53:20;;;;;;;5.93;2.57;;;;;;;;;;5028019;28;89676;-64
2024/01/19 06:55:53;;;;;;;3.90;2.60;;;;;;;;;;5027088;28;90141;-64
2024/01/19 06:58:23;;;;;;;4.23;2.90;;;;;;;;;;5028800;28;89763;-64
2024/01/19 07:00:55;;;;;;;3.00;1.80;;;;;;;;;;5028100;28;87650;-64
2024/01/19 07:03:23;;;;;;;4.10;2.07;;;;;;;;;;5028511;28;89760;-64
2024/01/19 07:05:52;;;;;;;3.43;2.13;;;;;;;;;;5028340;28;88974;-64
2024/01/19 07:08:23;;;;;;;2.93;1.73;;;;;;;;;;5028849;28;88795;-63
2024/01/19 07:10:53;;;;;;;3.53;2.07;;;;;;;;;;5027525;28;87566;-64
2024/01/19 07:13:25;;;;;;;3.33;2.70;;;;;;;;;;5026543;28;89652;-64
2024/01/19 07:15:54;;;;;;;2.40;2.10;;;;;;;;;;5025206;28;89212;-63
2024/01/19 07:18:27;;;;;;;2.47;1.77;;;;;;;;;;5025315;28;88834;-63
2024/01/19 07:20:56;;;;;;;3.97;2.63;;;;;;;;;;5027510;28;87915;-64
2024/01/19 07:23:24;;;;;;;2.03;1.83;;;;;;;;;;5027119;28;89882;-64
2024/01/19 07:25:52;;;;;;;4.30;2.90;;;;;;;;;;5026924;28;88628;-64
2024/01/19 07:28:22;;;;;;;3.63;2.27;;;;;;;;;;5026783;28;88911;-64
2024/01/19 07:30:52;;;;;;;1.87;1.77;;;;;;;;;;5033434;28;87649;-64
2024/01/19 07:33:21;;;;;;;2.37;2.03;;;;;;;;;;5027492;28;89576;-64
2024/01/19 07:36:00;;;;;;;2.23;1.80;;;;;;;;;;5028547;28;89287;-64
2024/01/19 07:38:30;;;;;;;2.50;2.00;;;;;;;;;;5032211;28;89141;-64
2024/01/19 07:40:59;;;;;;;2.90;1.93;;;;;;;;;;5031419;28;87421;-64
2024/01/19 07:43:27;;;;;;;1.93;1.30;;;;;;;;;;5032040;28;89836;-64
2024/01/19 07:45:56;;;;;;;3.40;1.67;;;;;;;;;;5029509;28;90051;-64
2024/01/19 07:48:25;;;;;;;2.57;2.00;;;;;;;;;;5031258;28;89823;-64
2024/01/19 07:50:54;;;;;;;1.83;1.73;;;;;;;;;;5029373;28;87730;-64
2024/01/19 07:53:22;;;;;;;2.63;1.97;;;;;;;;;;5024214;28;89667;-64
2024/01/19 07:55:51;;;;;;;2.83;1.80;;;;;;;;;;5029882;28;87941;-64
2024/01/19 07:58:19;;;;;;;4.30;2.23;;;;;;;;;;5029755;28;88825;-64
2024/01/19 08:00:47;;;;;;;3.60;1.63;;;;;;;;;;5025448;28;88585;-64
2024/01/19 08:03:16;;;;;;;2.43;2.07;;;;;;;;;;5024658;28;89697;-64
2024/01/19 08:05:46;;;;;;;2.83;2.07;;;;;;;;;;5029500;28;89290;-64
2024/01/19 08:08:15;;;;;;;3.27;1.90;;;;;;;;;;5026476;28;88859;-64
2024/01/19 08:10:44;;;;;;;4.77;2.30;;;;;;;;;;5026070;28;88441;-64
2024/01/19 08:13:14;;;;;;;2.50;1.93;;;;;;;;;;5028502;28;89589;-63
2024/01/19 08:15:42;;;;;;;2.37;1.30;;;;;;;;;;5029806;28;88736;-64
2024/01/19 08:18:10;;;;;;;1.87;1.53;;;;;;;;;;5029380;28;87516;-64
2024/01/19 08:20:39;;;;;;;1.30;1.20;;;;;;;;;;5029854;28;87400;-64
2024/01/19 08:23:08;;;;;;;2.43;1.63;;;;;;;;;;5031270;28;89791;-64
2024/01/19 08:25:37;;;;;;;1.90;1.27;;;;;;;;;;5031082;28;89102;-64
2024/01/19 08:28:05;;;;;;;3.17;1.50;;;;;;;;;;5031374;28;88887;-64
2024/01/19 08:30:34;;;;;;;2.10;1.63;;;;;;;;;;5025879;28;87564;-64
2024/01/19 08:33:02;;;;;;;4.63;1.23;;;;;;;;;;5024010;28;89274;-64
2024/01/19 08:35:30;;;;;;;1.63;1.40;;;;;;;;;;5028303;28;89977;-64
2024/01/19 08:37:59;;;;;;;1.70;1.33;;;;;;;;;;5022509;28;89442;-64
2024/01/19 08:40:29;;;;;;;1.57;1.47;;;;;;;;;;5025811;28;87812;-64
2024/01/19 08:42:57;;;;;;;2.13;1.70;;;;;;;;;;5025400;28;89590;-64
2024/01/19 08:45:28;;;;;;;1.67;1.37;;;;;;;;;;5028108;28;89256;-64
2024/01/19 08:47:59;;;;;;;1.93;1.67;;;;;;;;;;5024514;27;87747;-64
2024/01/19 08:50:28;;;;;;;1.30;1.10;;;;;;;;;;5025714;28;87527;-64
2024/01/19 08:52:56;;;;;;;2.50;1.73;;;;;;;;;;5031136;28;90084;-64
2024/01/19 08:55:25;;;;;;;1.87;1.67;;;;;;;;;;5030940;28;89093;-64
2024/01/19 08:57:56;;;;;;;2.73;1.60;;;;;;;;;;5026528;28;87422;-64
2024/01/19 09:00:25;;;;;;;2.17;1.70;;;;;;;;;;5025819;28;88012;-63
2024/01/19 09:02:53;;;;;;;3.27;1.63;;;;;;;;;;5022896;27;88818;-64
2024/01/19 09:05:31;;;;;;;2.67;1.13;;;;;;;;;;5031833;28;89239;-64
2024/01/19 09:08:00;;;;;;;2.73;1.20;;;;;;;;;;5029413;28;88745;-64
2024/01/19 09:10:29;;;;;;;0.90;0.90;;;;;;;;;;5032075;28;87686;-64
2024/01/19 09:12:59;;;;;;;1.13;1.10;;;;;;;;;;5028987;28;89763;-64
2024/01/19 09:15:27;;;;;;;1.93;1.37;;;;;;;;;;5025452;28;89295;-64
2024/01/19 09:17:56;;;;;;;1.77;1.17;;;;;;;;;;5023508;28;88439;-64
2024/01/19 09:20:26;;;;;;;1.43;1.33;;;;;;;;;;5029999;28;87835;-64
2024/01/19 09:22:54;;;;;;;1.43;1.33;;;;;;;;;;5024330;28;89632;-64
2024/01/19 09:25:22;;;;;;;1.80;1.03;;;;;;;;;;5029673;28;90186;-64
2024/01/19 09:27:51;;;;;;;1.97;1.10;;;;;;;;;;5029747;28;89765;-63
2024/01/19 09:30:21;;;;;;;1.20;1.10;;;;;;;;;;5031302;28;87685;-63
2024/01/19 09:32:49;;;;;;;2.23;1.33;;;;;;;;;;5031468;28;89667;-63
2024/01/19 09:35:18;;;;;;;1.47;1.37;;;;;;;;;;5029738;28;89129;-63
2024/01/19 09:37:46;;;;;;;5.13;1.43;;;;;;;;;;5030972;28;88987;-63
2024/01/19 09:40:15;;;;;;;5.60;1.57;;;;;;;;;;5027084;28;87445;-64
2024/01/19 09:42:44;;;;;;;2.53;1.17;;;;;;;;;;5027994;28;88711;-64
2024/01/19 09:45:17;;;;;;;6.03;1.70;;;;;;;;;;5027483;28;87998;-63
2024/01/19 09:47:55;;;;;;;1.43;1.27;;;;;;;;;;5028801;27;89125;-63
2024/01/19 09:50:25;;;;;;;2.67;1.83;;;;;;;;;;5028940;28;87739;-63
2024/01/19 09:52:56;;;;;;;3.80;2.60;;;;;;;;;;5025308;28;88571;-63
2024/01/19 09:55:24;;;;;;;3.13;2.20;;;;;;;;;;5029396;28;89111;-63
2024/01/19 09:57:53;;;;;;;2.77;2.43;;;;;;;;;;5030639;28;88937;-64
2024/01/19 10:00:21;;;;;;;5.70;3.27;;;;;;;;;;5030545;28;87624;-63
2024/01/19 10:02:51;;;;;;;3.47;2.60;;;;;;;;;;5029090;28;89741;-64
2024/01/19 10:05:20;;;;;;;3.30;2.40;;;;;;;;;;5030281;28;89372;-63
2024/01/19 10:07:49;;;;;;;4.33;2.40;;;;;;;;;;5027966;28;88797;-63
2024/01/19 10:10:17;;;;;;;4.47;2.67;;;;;;;;;;5028412;28;88024;-63
2024/01/19 10:12:45;;;;;;;5.93;2.97;;;;;;;;;;5031437;28;89722;-64
2024/01/19 10:15:14;;;;;;;6.83;4.07;;;;;;;;;;5025650;28;90029;-63
2024/01/19 10:17:43;;;;;;;5.27;3.27;;;;;;;;;;5029749;28;89791;-64
2024/01/19 10:20:13;;;;;;;6.20;3.60;;;;;;;;;;5030832;28;87669;-63
2024/01/19 10:22:41;;;;;;;11.27;4.23;;;;;;;;;;5027842;28;89455;-63
2024/01/19 10:25:11;;;;;;;5.03;2.87;;;;;;;;;;5030568;28;89151;-64
2024/01/19 10:27:40;;;;;;;7.47;3.33;;;;;;;;;;5027902;28;88915;-64
2024/01/19 10:30:10;;;;;;;6.60;4.43;;;;;;;;;;5029509;28;87784;-64
2024/01/19 10:32:39;;;;;;;5.10;3.37;;;;;;;;;;5027604;28;88502;-63
2024/01/19 10:35:09;;;;;;;7.40;4.27;;;;;;;;;;5028545;28;89155;-63
2024/01/19 10:37:38;;;;;;;10.90;4.23;;;;;;;;;;5025081;28;88762;-63
2024/01/19 10:40:14;;;;;;;5.23;4.13;;;;;;;;;;5030328;28;87976;-63
2024/01/19 10:42:42;;;;;;;10.10;4.27;;;;;;;;;;5025179;28;89759;-63
2024/01/19 10:45:20;;;;;;;6.10;4.23;;;;;;;;;;5027769;28;89136;-64
2024/01/19 10:47:49;;;;;;;7.80;4.60;;;;;;;;;;5027638;28;88914;-63
2024/01/19 10:50:19;;;;;;;8.30;4.50;;;;;;;;;;5026648;28;87968;-64
2024/01/19 10:52:51;;;;;;;8.63;4.57;;;;;;;;;;5027426;28;89495;-63
2024/01/19 10:55:19;;;;;;;6.43;3.83;;;;;;;;;;5027111;28;89020;-63
2024/01/19 10:57:50;;;;;;;6.60;4.13;;;;;;;;;;5029053;28;88780;-63
2024/01/19 11:00:24;;;;;;;6.37;3.77;;;;;;;;;;5027173;28;87585;-63
2024/01/19 11:02:54;;;;;;;7.10;4.47;;;;;;;;;;5025729;28;89578;-63
2024/01/19 11:05:22;;;;;;;5.90;3.20;;;;;;;;;;5032671;28;89837;-63
2024/01/19 11:07:52;;;;;;;5.10;3.70;;;;;;;;;;5030686;28;88653;-64
2024/01/19 11:10:21;;;;;;;7.83;4.37;;;;;;;;;;5031885;28;87444;-63
2024/01/19 11:12:52;;;;;;;9.23;3.47;;;;;;;;;;5031709;28;89617;-64
2024/01/19 11:15:33;;;;;;;6.30;4.03;;;;;;;;;;5027357;28;89261;-64
2024/01/19 11:18:02;;;;;;;7.90;4.17;;;;;;;;;;5031131;28;88774;-63
2024/01/19 11:20:31;;;;;;;6.40;3.73;;;;;;;;;;5034928;28;87698;-63
2024/01/19 11:23:02;;;;;;;5.57;4.33;;;;;;;;;;5032821;28;89678;-63
2024/01/19 11:25:51;;;;;;;4.47;3.77;;;;;;;;;;5030086;28;89208;-63
2024/01/19 11:28:22;;;;;;;6.87;3.50;;;;;;;;;;5015095;28;88838;-63
2024/01/19 11:30:58;;;;;;;5.97;3.03;;;;;;;;;;5033106;28;87899;-63
2024/01/19 11:33:27;;;;;;;5.87;4.07;;;;;;;;;;5033171;28;88524;-63
2024/01/19 11:35:55;;;;;;;4.33;3.43;;;;;;;;;;5028516;28;89018;-63
2024/01/19 11:38:44;;;;;;;5.80;2.80;;;;;;;;;;5030238;28;88835;-63
2024/01/19 11:41:32;;;;;;;4.10;2.70;;;;;;;;;;5033496;28;87617;-63
2024/01/19 11:44:03;;;;;;;6.97;3.07;;;;;;;;;;5030316;28;89652;-63
2024/01/19 11:46:50;;;;;;;6.13;3.77;;;;;;;;;;5031186;28;88211;-63
2024/01/19 11:49:35;;;;;;;4.23;3.30;;;;;;;;;;5031443;28;88574;-63
2024/01/19 11:52:04;;;;;;;3.50;2.73;;;;;;;;;;5031042;28;87586;-63
2024/01/19 11:54:37;;;;;;;3.87;2.00;;;;;;;;;;5030513;28;89612;-63
2024/01/19 11:57:16;;;;;;;4.60;2.83;;;;;;;;;;5021547;28;89709;-63
2024/01/19 11:59:45;;;;;;;5.80;3.13;;;;;;;;;;5022490;28;89888;-63
2024/01/19 12:02:21;;;;;;;4.03;2.27;;;;;;;;;;5023098;28;87598;-63
2024/01/19 12:04:49;;;;;;;4.83;2.93;;;;;;;;;;5033848;28;89738;-64
2024/01/19 12:07:18;;;;;;;8.23;3.27;;;;;;;;;;5025665;28;89117;-63
2024/01/19 12:09:51;;;;;;;5.20;3.07;;;;;;;;;;5016546;28;88847;-63
2024/01/19 12:12:19;;;;;;;6.20;2.87;;;;;;;;;;4999770;28;87417;-63
2024/01/19 12:14:47;;;;;;;3.57;2.50;;;;;;;;;;4998745;28;89653;-64
2024/01/19 12:17:18;;;;;;;4.27;2.23;;;;;;;;;;4999038;28;88799;-63
2024/01/19 12:19:46;;;;;;;3.60;2.27;;;;;;;;;;4998716;28;88967;-63
2024/01/19 12:22:15;;;;;;;6.17;3.47;;;;;;;;;;5018400;28;88511;-63
2024/01/19 12:24:43;;;;;;;6.70;3.00;;;;;;;;;;5019011;28;88932;-64
2024/01/19 12:27:14;;;;;;;3.80;2.23;;;;;;;;;;5022813;28;89035;-64
2024/01/19 12:29:43;;;;;;;2.83;2.57;;;;;;;;;;5018944;28;88834;-63
2024/01/19 12:32:11;;;;;;;3.90;2.20;;;;;;;;;;5018844;28;88004;-64
2024/01/19 12:34:39;;;;;;;8.50;3.03;;;;;;;;;;5017021;28;89651;-64
2024/01/19 12:37:09;;;;;;;4.93;2.20;;;;;;;;;;4998641;28;89054;-64
2024/01/19 12:39:40;;;;;;;4.13;2.37;;;;;;;;;;5006761;28;88769;-64
2024/01/19 12:42:08;;;;;;;4.97;2.60;;;;;;;;;;5014991;28;88030;-64
2024/01/19 12:44:41;;;;;;;4.27;2.87;;;;;;;;;;5015594;28;89775;-64
2024/01/19 12:47:10;;;;;;;3.67;2.60;;;;;;;;;;5012095;28;90067;-64
2024/01/19 12:49:38;;;;;;;5.30;3.17;;;;;;;;;;5013563;28;89846;-64
2024/01/19 12:52:19;;;;;;;4.30;2.87;;;;;;;;;;5018322;28;87682;-65
2024/01/19 12:54:48;;;;;;;4.47;2.87;;;;;;;;;;5022704;28;89603;-63
2024/01/19 12:57:19;;;;;;;7.50;3.87;;;;;;;;;;5022436;28;89357;-64
2024/01/19 12:59:49;;;;;;;6.13;3.67;;;;;;;;;;5023874;28;88936;-63
2024/01/19 13:02:19;;;;;;;5.50;3.77;;;;;;;;;;5022807;28;87670;-64
2024/01/19 13:04:47;;;;;;;6.40;4.27;;;;;;;;;;5027456;28;89916;-64
2024/01/19 13:07:21;;;;;;;8.73;4.50;;;;;;;;;;5029549;28;89461;-64
2024/01/19 13:10:00;;;;;;;7.50;4.33;;;;;;;;;;5024441;28;88879;-63
2024/01/19 13:12:29;;;;;;;5.93;4.07;;;;;;;;;;5020364;28;88570;-64
2024/01/19 13:15:05;;;;;;;6.10;4.13;;;;;;;;;;5024914;28;89585;-63
2024/01/19 13:17:35;;;;;;;7.23;4.53;;;;;;;;;;5019644;28;89481;-63
2024/01/19 13:20:04;;;;;;;6.13;4.40;;;;;;;;;;5017180;28;88877;-63
2024/01/19 13:22:33;;;;;;;9.03;4.43;;;;;;;;;;5012737;28;87678;-63
2024/01/19 13:25:01;;;;;;;5.87;4.40;;;;;;;;;;5022190;28;89747;-63
2024/01/19 13:27:29;;;;;;;4.30;3.90;;;;;;;;;;5012874;28;87996;-63
2024/01/19 13:29:58;;;;;;;9.57;5.00;;;;;;;;;;5018142;28;89028;-63
2024/01/19 13:32:28;;;;;;;7.33;4.87;;;;;;;;;;5028946;28;87709;-63
2024/01/19 13:34:56;;;;;;;4.93;3.37;;;;;;;;;;5023012;28;89590;-62
2024/01/19 13:37:24;;;;;;;7.43;4.53;;;;;;;;;;5027192;28;90263;-63
2024/01/19 13:39:55;;;;;;;7.23;4.90;;;;;;;;;;5022994;28;88738;-63
2024/01/19 13:42:25;;;;;;;8.93;4.87;;;;;;;;;;5028339;28;87384;-63
2024/01/19 13:44:54;;;;;;;7.63;4.53;;;;;;;;;;5025649;28;89633;-63
2024/01/19 13:47:24;;;;;;;7.40;4.37;;;;;;;;;;5018954;28;88008;-63
2024/01/19 13:49:56;;;;;;;9.20;5.43;;;;;;;;;;5027791;28;88784;-63
2024/01/19 13:52:29;;;;;;;11.53;7.17;;;;;;;;;;5020416;28;87766;-63
2024/01/19 13:54:57;;;;;;;8.40;5.80;;;;;;;;;;5020674;28;88239;-63
2024/01/19 13:57:26;;;;;;;14.07;7.63;;;;;;;;;;5024738;28;89069;-63
2024/01/19 13:59:54;;;;;;;11.03;6.90;;;;;;;;;;5022894;28;89055;-63
2024/01/19 14:02:23;;;;;;;12.27;6.03;;;;;;;;;;5025723;28;88012;-63
2024/01/19 14:04:56;;;;;;;9.03;5.97;;;;;;;;;;5025169;28;89859;-64
2024/01/19 14:07:25;;;;;;;12.47;6.17;;;;;;;;;;5027624;28;89045;-63
2024/01/19 14:09:54;;;;;;;12.23;7.23;;;;;;;;;;5025301;28;88760;-64
2024/01/19 14:12:22;;;;;;;8.97;6.37;;;;;;;;;;5020899;28;87841;-62
2024/01/19 14:14:51;;;;;;;14.23;6.97;;;;;;;;;;5024048;28;89643;-63
2024/01/19 14:17:19;;;;;;;10.87;6.57;;;;;;;;;;5022251;28;89118;-63
2024/01/19 14:19:47;;;;;;;16.03;6.77;;;;;;;;;;5026355;28;87428;-63
2024/01/19 14:22:17;;;;;;;8.43;6.17;;;;;;;;;;5024733;28;87655;-64
2024/01/19 14:24:46;;;;;;;9.77;6.63;;;;;;;;;;5027656;28;88532;-64
2024/01/19 14:27:15;;;;;;;9.37;5.97;;;;;;;;;;5024580;28;90076;-64
2024/01/19 14:29:45;;;;;;;11.63;7.43;;;;;;;;;;5026357;28;89730;-62
2024/01/19 14:32:15;;;;;;;15.03;6.80;;;;;;;;;;5027362;28;87693;-62
2024/01/19 14:34:43;;;;;;;14.47;6.67;;;;;;;;;;5026243;28;89899;-63
2024/01/19 14:37:21;;;;;;;12.13;6.83;;;;;;;;;;5023760;28;89747;-63
2024/01/19 14:39:50;;;;;;;8.93;6.10;;;;;;;;;;5029732;28;88992;-62
2024/01/19 14:42:18;;;;;;;15.97;7.23;;;;;;;;;;5026600;28;87546;-64
2024/01/19 14:44:46;;;;;;;10.50;5.83;;;;;;;;;;5029371;28;89920;-64
2024/01/19 14:47:14;;;;;;;13.10;6.07;;;;;;;;;;5029919;28;89132;-64
2024/01/19 14:49:50;;;;;;;6.83;5.43;;;;;;;;;;5029385;28;88732;-63
2024/01/19 14:52:19;;;;;;;13.17;7.30;;;;;;;;;;5025824;28;88202;-63
2024/01/19 14:54:53;;;;;;;15.53;7.37;;;;;;;;;;5029304;28;88493;-62